Abington, Massachusetts
Current Conditions -  °F | °C
As of 3:53 AM on Friday 24 Oct 2014 (Local Time) from KOWD Reporting Station
Light Rain Light Rain  
Wind Chill: 50°   Ceiling: 1100
Heat Index: 50°   Visibility: 5mi
Dew Point: 48°   Wind: 9mph
Humidity: 93%   Direction: 330°NNW
Pressure: 29.65"   Gusts: NA
Location:  42.12°N, 70.96°W
Report Text: KOWD 240753Z AUTO 33008KT 5SM -RA BR BKN011 BKN016 OVC038 10/09 A2965 RMK AO2 RAE30B48 SLP040 P0003 T01000089
Loading
Personal Weather Stations






























Interactive Weather Map New forecast layout! Learn more

10-Day Weather Forecast

Advertisements
Track Severe Weather on mobile